createdAt,value
2022-11-30T00:01:23.457Z,4.10
2022-11-30T00:03:56.101Z,4.00
2022-11-30T00:06:24.620Z,4.10
2022-11-30T00:08:56.351Z,4.00
2022-11-30T00:11:25.781Z,4.00
2022-11-30T00:13:53.581Z,4.00
2022-11-30T00:16:21.073Z,4.00
2022-11-30T00:18:48.641Z,4.00
2022-11-30T00:21:16.447Z,4.00
2022-11-30T00:23:45.435Z,4.00
2022-11-30T00:26:18.224Z,4.10
2022-11-30T00:28:46.243Z,4.10
2022-11-30T00:31:16.535Z,4.10
2022-11-30T00:33:44.365Z,4.00
2022-11-30T00:36:14.419Z,4.10
2022-11-30T00:38:41.867Z,4.10
2022-11-30T00:41:09.585Z,4.10
2022-11-30T00:43:37.607Z,4.10
2022-11-30T00:46:05.537Z,4.10
2022-11-30T00:48:33.039Z,4.10
2022-11-30T00:51:00.416Z,4.10
2022-11-30T00:53:27.840Z,4.10
2022-11-30T00:55:55.445Z,4.10
2022-11-30T00:58:23.200Z,4.10
2022-11-30T01:00:50.605Z,4.00
2022-11-30T01:03:18.266Z,4.00
2022-11-30T01:05:46.328Z,4.00
2022-11-30T01:08:14.062Z,4.00
2022-11-30T01:10:43.226Z,4.00
2022-11-30T01:13:12.911Z,3.90
2022-11-30T01:15:43.506Z,4.00
2022-11-30T01:18:11.345Z,3.90
2022-11-30T01:20:43.532Z,3.90
2022-11-30T01:23:11.363Z,3.90
2022-11-30T01:25:39.126Z,3.90
2022-11-30T01:28:06.882Z,3.90
2022-11-30T01:30:34.309Z,3.80
2022-11-30T01:33:06.308Z,3.80
2022-11-30T01:35:33.641Z,3.80
2022-11-30T01:38:01.128Z,3.80
2022-11-30T01:40:28.469Z,3.80
2022-11-30T01:42:55.810Z,3.70
2022-11-30T01:45:23.478Z,3.70
2022-11-30T01:47:56.900Z,3.70
2022-11-30T01:50:31.300Z,3.60
2022-11-30T01:52:59.910Z,3.60
2022-11-30T01:55:35.803Z,3.60
2022-11-30T01:58:13.982Z,3.60
2022-11-30T02:00:45.801Z,3.50
2022-11-30T02:03:39.195Z,3.50
2022-11-30T02:06:07.525Z,3.50
2022-11-30T02:08:35.073Z,3.50
2022-11-30T02:11:08.410Z,3.50
2022-11-30T02:14:18.906Z,3.50
2022-11-30T02:17:12.872Z,3.50
2022-11-30T02:20:30.947Z,3.50
2022-11-30T02:23:30.231Z,3.50
2022-11-30T02:26:33.202Z,3.50
2022-11-30T02:29:25.971Z,3.60
2022-11-30T02:32:08.513Z,3.60
2022-11-30T02:34:37.426Z,3.60
2022-11-30T02:37:07.955Z,3.60
2022-11-30T02:39:35.665Z,3.60
2022-11-30T02:42:03.329Z,3.60
2022-11-30T02:44:30.935Z,3.60
2022-11-30T02:47:42.297Z,3.60
2022-11-30T02:50:16.485Z,3.60
2022-11-30T02:52:45.247Z,3.60
2022-11-30T02:55:16.737Z,3.60
2022-11-30T02:57:44.468Z,3.60
2022-11-30T03:00:13.903Z,3.60
2022-11-30T03:02:42.047Z,3.60
2022-11-30T03:05:10.706Z,3.60
2022-11-30T03:07:38.165Z,3.50
2022-11-30T03:10:07.019Z,3.50
2022-11-30T03:12:34.383Z,3.50
2022-11-30T03:15:01.785Z,3.50
2022-11-30T03:17:29.209Z,3.50
2022-11-30T03:19:56.836Z,3.50
2022-11-30T03:22:24.811Z,3.50
2022-11-30T03:24:52.264Z,3.40
2022-11-30T03:27:19.579Z,3.40
2022-11-30T03:29:46.969Z,3.50
2022-11-30T03:32:14.343Z,3.40
2022-11-30T03:34:41.978Z,3.40
2022-11-30T03:37:09.395Z,3.30
2022-11-30T03:39:36.797Z,3.30
2022-11-30T03:42:04.340Z,3.30
2022-11-30T03:44:31.817Z,3.20
2022-11-30T03:46:59.208Z,3.20
2022-11-30T03:49:26.684Z,3.20
2022-11-30T03:51:54.048Z,3.10
2022-11-30T03:54:21.798Z,3.00
2022-11-30T03:56:49.196Z,2.90
2022-11-30T03:59:16.626Z,2.90
2022-11-30T04:01:44.060Z,2.90
2022-11-30T04:04:12.609Z,2.80
2022-11-30T04:06:40.804Z,2.70
2022-11-30T04:09:10.028Z,2.60
2022-11-30T04:11:37.403Z,2.60
2022-11-30T04:14:04.923Z,2.50
2022-11-30T04:16:32.367Z,2.40
2022-11-30T04:18:59.901Z,2.40
2022-11-30T04:21:27.249Z,2.30
2022-11-30T04:23:54.629Z,2.30
2022-11-30T04:26:22.034Z,2.20
2022-11-30T04:28:49.479Z,2.10
2022-11-30T04:31:17.479Z,2.00
2022-11-30T04:33:44.911Z,1.90
2022-11-30T04:36:20.079Z,1.90
2022-11-30T04:38:47.920Z,1.80
2022-11-30T04:41:15.623Z,1.70
2022-11-30T04:43:44.340Z,1.60
2022-11-30T04:46:11.900Z,1.60
2022-11-30T04:48:39.327Z,1.50
2022-11-30T04:51:08.310Z,1.40
2022-11-30T04:53:37.635Z,1.40
2022-11-30T04:56:11.841Z,1.30
2022-11-30T04:58:40.010Z,1.30
2022-11-30T05:01:08.323Z,1.20
2022-11-30T05:03:35.881Z,1.20
2022-11-30T05:06:03.881Z,1.10
2022-11-30T05:08:31.356Z,1.00
2022-11-30T05:10:58.818Z,0.90
2022-11-30T05:13:27.006Z,0.90
2022-11-30T05:15:54.560Z,0.80
2022-11-30T05:18:22.320Z,0.80
2022-11-30T05:20:50.912Z,0.70
2022-11-30T05:23:19.000Z,0.70
2022-11-30T05:25:46.893Z,0.60
2022-11-30T05:28:14.714Z,0.60
2022-11-30T05:30:43.184Z,0.50
2022-11-30T05:33:10.595Z,0.50
2022-11-30T05:35:38.647Z,0.50
2022-11-30T05:38:07.326Z,0.50
2022-11-30T05:40:34.732Z,0.50
2022-11-30T05:43:03.774Z,0.40
2022-11-30T05:45:31.248Z,0.40
2022-11-30T05:47:58.640Z,0.40
2022-11-30T05:50:26.110Z,0.40
2022-11-30T05:52:56.441Z,0.40
2022-11-30T05:55:24.850Z,0.40
2022-11-30T05:57:52.661Z,0.40
2022-11-30T06:00:21.209Z,0.30
2022-11-30T06:02:48.934Z,0.30
2022-11-30T06:05:16.605Z,0.30
2022-11-30T06:07:44.004Z,0.20
2022-11-30T06:10:12.069Z,0.20
2022-11-30T06:12:39.415Z,0.20
2022-11-30T06:15:08.140Z,0.10
2022-11-30T06:17:37.956Z,0.20
2022-11-30T06:20:06.842Z,0.20
2022-11-30T06:22:34.474Z,0.20
2022-11-30T06:25:01.986Z,0.20
2022-11-30T06:27:32.719Z,0.10
2022-11-30T06:30:00.808Z,0.10
2022-11-30T06:32:28.829Z,0.10
2022-11-30T06:34:56.337Z,0.00
2022-11-30T06:37:23.788Z,0.00
2022-11-30T06:40:06.044Z,0.00
2022-11-30T06:42:34.993Z,0.00
2022-11-30T06:45:02.485Z,-0.10
2022-11-30T06:47:29.955Z,-0.10
2022-11-30T06:49:57.334Z,-0.20
2022-11-30T06:52:25.202Z,-0.20
2022-11-30T06:57:44.427Z,-0.10
2022-11-30T07:00:15.425Z,-0.20
2022-11-30T07:02:43.983Z,-0.20
2022-11-30T07:05:11.780Z,-0.20
2022-11-30T07:07:39.164Z,-0.20
2022-11-30T07:10:07.571Z,-0.30
2022-11-30T07:12:36.023Z,-0.30
2022-11-30T07:15:03.820Z,-0.20
2022-11-30T07:17:31.312Z,-0.20
2022-11-30T07:19:58.760Z,-0.20
2022-11-30T07:22:26.427Z,-0.20
2022-11-30T07:25:12.305Z,-0.10
2022-11-30T07:27:39.858Z,-0.10
2022-11-30T07:30:08.349Z,0.00
2022-11-30T07:32:35.649Z,0.10
2022-11-30T07:35:03.392Z,0.20
2022-11-30T07:37:31.010Z,0.40
2022-11-30T07:39:58.428Z,0.40
2022-11-30T07:42:25.767Z,0.60
2022-11-30T07:44:58.358Z,0.70
2022-11-30T07:47:26.792Z,0.90
2022-11-30T07:49:54.370Z,1.10
2022-11-30T07:52:21.956Z,1.40
2022-11-30T07:54:49.717Z,1.70
2022-11-30T07:57:17.419Z,2.10
2022-11-30T07:59:46.601Z,2.40
2022-11-30T08:02:14.271Z,2.80
2022-11-30T08:04:42.015Z,3.00
2022-11-30T08:07:09.804Z,3.20
2022-11-30T08:09:37.204Z,3.40
2022-11-30T08:12:05.089Z,3.50
2022-11-30T08:14:45.419Z,3.70
2022-11-30T08:17:19.939Z,3.80
2022-11-30T08:19:47.492Z,3.90
2022-11-30T08:22:14.822Z,4.00
2022-11-30T08:24:42.299Z,4.10
2022-11-30T08:27:09.815Z,4.30
2022-11-30T08:29:38.302Z,4.40
2022-11-30T08:32:07.039Z,4.50
2022-11-30T08:34:34.437Z,4.50
2022-11-30T08:37:01.792Z,4.60
2022-11-30T08:39:31.686Z,4.70
2022-11-30T08:41:59.038Z,4.80
2022-11-30T08:44:27.731Z,4.90
2022-11-30T08:46:55.478Z,4.90
2022-11-30T08:49:24.733Z,4.80
2022-11-30T08:54:47.255Z,4.60
2022-11-30T08:57:20.336Z,4.70
2022-11-30T08:59:48.294Z,4.70
2022-11-30T09:02:18.090Z,4.70
2022-11-30T09:04:49.391Z,4.90
2022-11-30T09:07:17.401Z,4.90
2022-11-30T09:09:44.958Z,5.00
2022-11-30T09:12:12.432Z,5.00
2022-11-30T09:14:39.842Z,4.90
2022-11-30T09:17:07.203Z,4.70
2022-11-30T09:19:34.648Z,4.80
2022-11-30T09:22:02.029Z,4.80
2022-11-30T09:24:29.548Z,4.80
2022-11-30T09:26:57.573Z,4.90
2022-11-30T09:29:25.106Z,4.90
2022-11-30T09:31:52.769Z,5.00
2022-11-30T09:34:20.184Z,5.00
2022-11-30T09:36:47.516Z,5.10
2022-11-30T09:39:14.919Z,5.20
2022-11-30T09:42:12.750Z,5.20
2022-11-30T09:45:10.157Z,5.30
2022-11-30T09:48:24.070Z,5.30
2022-11-30T09:50:53.403Z,5.20
2022-11-30T09:53:45.442Z,5.20
2022-11-30T09:56:30.290Z,5.30
2022-11-30T09:59:14.084Z,5.30
2022-11-30T10:01:46.107Z,5.30
2022-11-30T10:04:40.024Z,5.30
2022-11-30T10:07:27.490Z,5.40
2022-11-30T10:10:33.114Z,5.40
2022-11-30T10:13:29.487Z,5.30
2022-11-30T10:16:18.265Z,5.40
2022-11-30T10:19:29.488Z,5.40
2022-11-30T10:22:26.287Z,5.50
2022-11-30T10:25:17.819Z,5.60
2022-11-30T10:28:17.767Z,5.60
2022-11-30T10:30:49.502Z,5.70
2022-11-30T10:33:20.311Z,5.50
2022-11-30T10:35:56.446Z,5.40
2022-11-30T10:38:28.940Z,5.20
2022-11-30T10:41:21.239Z,5.10
2022-11-30T10:43:56.717Z,5.00
2022-11-30T10:46:33.465Z,5.00
2022-11-30T10:49:08.229Z,5.10
2022-11-30T10:51:38.476Z,5.20
2022-11-30T10:54:20.648Z,5.30
2022-11-30T10:56:48.064Z,5.40
2022-11-30T10:59:33.906Z,5.60
2022-11-30T11:02:01.551Z,5.70
2022-11-30T11:04:30.076Z,5.70
2022-11-30T11:07:02.164Z,5.70
2022-11-30T11:09:48.956Z,5.80
2022-11-30T11:12:24.958Z,5.80
2022-11-30T11:15:21.993Z,5.70
2022-11-30T11:17:51.138Z,5.70
2022-11-30T11:20:47.583Z,5.80
2022-11-30T11:23:34.924Z,5.90
2022-11-30T11:26:02.585Z,6.00
2022-11-30T11:28:31.393Z,6.00
2022-11-30T11:30:59.969Z,5.90
2022-11-30T11:33:29.611Z,5.90
2022-11-30T11:36:15.571Z,5.90
2022-11-30T11:38:48.471Z,6.00
2022-11-30T11:41:35.638Z,5.90
2022-11-30T11:44:22.399Z,5.90
2022-11-30T11:47:08.368Z,5.80
2022-11-30T11:49:37.412Z,5.60
2022-11-30T11:52:20.032Z,5.60
2022-11-30T11:55:02.073Z,5.40
2022-11-30T11:57:46.519Z,5.40
2022-11-30T12:00:21.045Z,5.20
2022-11-30T12:03:13.448Z,5.10
2022-11-30T12:05:42.900Z,5.10
2022-11-30T12:08:48.853Z,5.10
2022-11-30T12:11:24.599Z,5.00
2022-11-30T12:13:53.801Z,5.00
2022-11-30T12:16:49.238Z,5.10
2022-11-30T12:19:24.900Z,5.10
2022-11-30T12:22:23.782Z,5.20
2022-11-30T12:25:15.835Z,5.40
2022-11-30T12:28:14.200Z,5.60
2022-11-30T12:31:11.783Z,5.70
2022-11-30T12:34:28.672Z,5.60
2022-11-30T12:37:04.720Z,5.50
2022-11-30T12:40:10.025Z,5.50
2022-11-30T12:43:10.311Z,5.40
2022-11-30T12:45:43.102Z,5.20
2022-11-30T12:48:43.397Z,5.10
2022-11-30T12:51:36.871Z,5.10
2022-11-30T12:54:28.177Z,5.00
2022-11-30T12:57:17.960Z,5.10
2022-11-30T13:00:20.401Z,5.20
2022-11-30T13:03:15.925Z,5.20
2022-11-30T13:05:48.122Z,5.20
2022-11-30T13:08:23.973Z,5.20
2022-11-30T13:11:08.436Z,5.20
2022-11-30T13:13:37.246Z,5.20
2022-11-30T13:16:08.073Z,5.10
2022-11-30T13:18:37.476Z,5.10
2022-11-30T13:21:21.254Z,5.10
2022-11-30T13:24:02.583Z,5.10
2022-11-30T13:26:42.154Z,5.10
2022-11-30T13:29:35.521Z,5.10
2022-11-30T13:32:48.704Z,5.10
2022-11-30T13:35:28.188Z,5.20
2022-11-30T13:41:08.384Z,5.40
2022-11-30T13:43:46.360Z,5.40
2022-11-30T13:46:22.009Z,5.50
2022-11-30T13:49:08.719Z,5.50
2022-11-30T13:51:39.677Z,5.50
2022-11-30T13:54:44.721Z,5.50
2022-11-30T13:57:50.719Z,5.40
2022-11-30T14:00:45.823Z,5.40
2022-11-30T14:03:26.155Z,5.40
2022-11-30T14:05:58.328Z,5.40
2022-11-30T14:08:33.238Z,5.30
2022-11-30T14:11:19.082Z,5.20
2022-11-30T14:13:47.349Z,5.10
2022-11-30T14:16:30.133Z,4.90
2022-11-30T14:18:58.036Z,4.90
2022-11-30T14:21:35.710Z,4.80
2022-11-30T14:24:23.320Z,4.70
2022-11-30T14:26:51.989Z,4.70
2022-11-30T14:29:28.022Z,4.60
2022-11-30T14:32:16.380Z,4.60
2022-11-30T14:34:49.787Z,4.60
2022-11-30T14:37:31.820Z,4.60
2022-11-30T14:40:04.729Z,4.50
2022-11-30T14:42:33.979Z,4.60
2022-11-30T14:45:01.956Z,4.40
2022-11-30T14:47:34.916Z,4.30
2022-11-30T14:50:05.990Z,4.30
2022-11-30T14:52:57.727Z,4.20
2022-11-30T14:55:51.027Z,4.10
2022-11-30T14:59:04.833Z,4.00
2022-11-30T15:01:33.401Z,4.00
2022-11-30T15:04:10.185Z,3.80
2022-11-30T15:06:39.651Z,3.80
2022-11-30T15:09:18.787Z,3.90
2022-11-30T15:11:48.852Z,3.90
2022-11-30T15:14:16.492Z,3.90
2022-11-30T15:16:49.467Z,3.80
2022-11-30T15:19:32.112Z,3.80
2022-11-30T15:22:00.155Z,3.90
2022-11-30T15:24:29.664Z,3.90
2022-11-30T15:27:15.191Z,3.90
2022-11-30T15:30:01.541Z,4.00
2022-11-30T15:32:29.404Z,4.00
2022-11-30T15:34:59.043Z,4.10
2022-11-30T15:37:35.439Z,4.10
2022-11-30T15:40:07.318Z,4.10
2022-11-30T15:42:40.294Z,4.00
2022-11-30T15:45:36.025Z,4.00
2022-11-30T15:48:08.159Z,4.10
2022-11-30T15:50:37.503Z,4.10
2022-11-30T15:53:35.997Z,4.10
2022-11-30T15:56:09.086Z,4.10
2022-11-30T15:58:59.183Z,4.10
2022-11-30T16:01:27.556Z,4.10
2022-11-30T16:04:01.721Z,4.10
2022-11-30T16:06:36.485Z,4.10
2022-11-30T16:09:19.205Z,4.10
2022-11-30T16:11:49.800Z,4.10
2022-11-30T16:14:17.794Z,4.00
2022-11-30T16:16:46.322Z,4.00
2022-11-30T16:19:13.880Z,4.00
2022-11-30T16:21:41.641Z,4.00
2022-11-30T16:24:14.261Z,4.00
2022-11-30T16:26:50.970Z,4.00
2022-11-30T16:29:19.757Z,4.00
2022-11-30T16:31:47.186Z,4.00
2022-11-30T16:34:14.978Z,4.00
2022-11-30T16:36:42.552Z,4.00
2022-11-30T16:39:12.563Z,4.00
2022-11-30T16:41:40.119Z,4.00
2022-11-30T16:44:13.927Z,4.00
2022-11-30T16:46:42.065Z,4.00
2022-11-30T16:49:09.461Z,4.00
2022-11-30T16:51:37.537Z,4.00
2022-11-30T16:54:05.273Z,4.00
2022-11-30T16:56:33.310Z,4.00
2022-11-30T16:59:00.728Z,4.00
2022-11-30T17:01:36.221Z,4.00
2022-11-30T17:04:31.201Z,4.10
2022-11-30T17:07:02.846Z,4.00
2022-11-30T17:09:30.802Z,4.10
2022-11-30T17:11:58.142Z,4.10
2022-11-30T17:14:25.595Z,4.00
2022-11-30T17:16:53.018Z,4.00
2022-11-30T17:19:20.825Z,4.10
2022-11-30T17:21:50.593Z,4.10
2022-11-30T17:24:18.183Z,4.10
2022-11-30T17:26:45.692Z,4.10
2022-11-30T17:29:13.113Z,4.10
2022-11-30T17:31:40.475Z,4.10
2022-11-30T17:34:08.761Z,4.10
2022-11-30T17:36:36.277Z,4.20
2022-11-30T17:39:07.821Z,4.20
2022-11-30T17:41:35.294Z,4.20
2022-11-30T17:44:03.142Z,4.30
2022-11-30T17:46:30.591Z,4.20
2022-11-30T17:48:58.117Z,4.20
2022-11-30T17:51:25.595Z,4.20
2022-11-30T17:53:53.073Z,4.20
2022-11-30T17:56:21.567Z,4.20
2022-11-30T17:58:49.510Z,4.20
2022-11-30T18:01:19.817Z,4.10
2022-11-30T18:03:47.420Z,4.10
2022-11-30T18:06:15.268Z,4.20
2022-11-30T18:08:43.235Z,4.20
2022-11-30T18:11:20.535Z,4.20
2022-11-30T18:13:51.814Z,4.10
2022-11-30T18:16:24.933Z,4.10
2022-11-30T18:18:53.319Z,4.10
2022-11-30T18:21:22.682Z,4.00
2022-11-30T18:23:50.457Z,3.90
2022-11-30T18:26:20.260Z,3.80
2022-11-30T18:28:55.173Z,3.70
2022-11-30T18:31:22.828Z,3.60
2022-11-30T18:33:55.044Z,3.50
2022-11-30T18:36:22.312Z,3.50
2022-11-30T18:38:49.701Z,3.40
2022-11-30T18:41:17.032Z,3.40
2022-11-30T18:43:44.665Z,3.40
2022-11-30T18:46:13.365Z,3.40
2022-11-30T18:48:41.556Z,3.40
2022-11-30T18:51:18.017Z,3.40
2022-11-30T18:53:46.084Z,3.40
2022-11-30T18:56:19.375Z,3.30
2022-11-30T18:58:48.421Z,3.40
2022-11-30T19:01:19.979Z,3.40
2022-11-30T19:03:52.536Z,3.30
2022-11-30T19:06:20.781Z,3.30
2022-11-30T19:08:48.448Z,3.30
2022-11-30T19:11:17.203Z,3.20
2022-11-30T19:13:45.740Z,3.20
2022-11-30T19:16:16.423Z,3.10
2022-11-30T19:18:47.272Z,3.10
2022-11-30T19:21:17.380Z,3.10
2022-11-30T19:23:46.209Z,3.10
2022-11-30T19:26:14.772Z,3.00
2022-11-30T19:28:43.664Z,3.00
2022-11-30T19:31:16.592Z,3.00
2022-11-30T19:33:46.195Z,3.00
2022-11-30T19:36:16.573Z,3.00
2022-11-30T19:38:45.207Z,3.00
2022-11-30T19:41:14.463Z,3.00
2022-11-30T19:43:44.371Z,3.00
2022-11-30T19:46:17.509Z,3.00
2022-11-30T19:48:45.332Z,3.00
2022-11-30T19:51:18.073Z,3.00
2022-11-30T19:53:46.047Z,2.90
2022-11-30T19:56:17.617Z,3.00
2022-11-30T19:58:46.261Z,2.90
2022-11-30T20:01:19.764Z,2.80
2022-11-30T20:03:47.217Z,2.80
2022-11-30T20:06:14.609Z,2.60
2022-11-30T20:08:42.067Z,2.60
2022-11-30T20:11:11.281Z,2.60
2022-11-30T20:13:46.071Z,2.50
2022-11-30T20:16:18.543Z,2.50
2022-11-30T20:18:53.326Z,2.50
2022-11-30T20:21:26.051Z,2.40
2022-11-30T20:23:54.929Z,2.20
2022-11-30T20:26:26.259Z,2.20
2022-11-30T20:28:53.806Z,2.20
2022-11-30T20:31:22.577Z,2.10
2022-11-30T20:33:50.988Z,2.00
2022-11-30T20:36:19.635Z,2.00
2022-11-30T20:38:47.977Z,1.90
2022-11-30T20:41:18.469Z,1.90
2022-11-30T20:43:46.449Z,1.90
2022-11-30T20:46:35.389Z,1.90
2022-11-30T20:49:04.893Z,1.90
2022-11-30T20:51:36.413Z,1.90
2022-11-30T20:54:07.048Z,1.90
2022-11-30T20:56:37.304Z,1.80
2022-11-30T20:59:09.117Z,1.80
2022-11-30T21:01:36.659Z,1.70
2022-11-30T21:04:04.459Z,1.70
2022-11-30T21:06:32.855Z,1.70
2022-11-30T21:09:00.448Z,1.70
2022-11-30T21:11:28.983Z,1.70
2022-11-30T21:13:57.563Z,1.70
2022-11-30T21:16:28.586Z,1.70
2022-11-30T21:19:00.275Z,1.70
2022-11-30T21:21:34.413Z,1.70
2022-11-30T21:24:05.309Z,1.70
2022-11-30T21:26:34.730Z,1.60
2022-11-30T21:29:21.838Z,1.60
2022-11-30T21:31:49.257Z,1.60
2022-11-30T21:34:16.938Z,1.60
2022-11-30T21:36:44.301Z,1.60
2022-11-30T21:39:15.977Z,1.50
2022-11-30T21:41:43.687Z,1.50
2022-11-30T21:44:12.918Z,1.50
2022-11-30T21:46:41.052Z,1.50
2022-11-30T21:49:09.965Z,1.50
2022-11-30T21:51:37.958Z,1.50
2022-11-30T21:54:07.892Z,1.60
2022-11-30T21:56:37.519Z,1.60
2022-11-30T21:59:07.359Z,1.60
2022-11-30T22:01:39.805Z,1.60
2022-11-30T22:04:08.660Z,1.60
2022-11-30T22:06:37.670Z,1.60
2022-11-30T22:09:08.722Z,1.60
2022-11-30T22:11:41.751Z,1.50
2022-11-30T22:14:15.679Z,1.50
2022-11-30T22:16:43.415Z,1.40
2022-11-30T22:19:11.170Z,1.40
2022-11-30T22:21:38.724Z,1.40
2022-11-30T22:24:09.596Z,1.40
2022-11-30T22:26:39.375Z,1.40
2022-11-30T22:29:20.887Z,1.40
2022-11-30T22:31:51.159Z,1.40
2022-11-30T22:34:19.409Z,1.40
2022-11-30T22:36:47.503Z,1.30
2022-11-30T22:39:20.155Z,1.30
2022-11-30T22:41:54.580Z,1.30
2022-11-30T22:44:23.231Z,1.30
2022-11-30T22:46:50.808Z,1.20
2022-11-30T22:49:21.494Z,1.20
2022-11-30T22:51:50.097Z,1.10
2022-11-30T22:54:17.906Z,1.00
2022-11-30T22:56:46.452Z,0.80
2022-11-30T22:59:15.463Z,0.70
2022-11-30T23:01:46.459Z,0.50
2022-11-30T23:04:19.869Z,0.40
2022-11-30T23:06:48.675Z,0.30
2022-11-30T23:09:20.243Z,0.30
2022-11-30T23:11:48.373Z,0.30
2022-11-30T23:14:16.634Z,0.50
2022-11-30T23:16:45.032Z,0.50
2022-11-30T23:19:13.026Z,0.60
2022-11-30T23:21:42.486Z,0.60
2022-11-30T23:24:14.505Z,0.60
2022-11-30T23:26:41.786Z,0.60
2022-11-30T23:29:12.487Z,0.70
2022-11-30T23:31:41.349Z,0.70
2022-11-30T23:34:12.371Z,0.70
2022-11-30T23:36:40.064Z,0.70
2022-11-30T23:39:10.383Z,0.70
2022-11-30T23:41:38.009Z,0.80
2022-11-30T23:44:05.973Z,0.80
2022-11-30T23:46:34.012Z,0.90
2022-11-30T23:49:01.757Z,0.80
2022-11-30T23:51:29.312Z,0.90
2022-11-30T23:53:56.971Z,0.80
2022-11-30T23:56:24.785Z,0.90
2022-11-30T23:58:53.239Z,0.90
